This is the latest recevied weather packets stored in our database for station/object N3SBK. If no packets are shown the sender has not sent any weather packets the latest 10 day(s).
| Time | Temp. | Humidity | Pressure | Rain* | Wind** | Luminosity | Snow |
|---|---|---|---|---|---|---|---|
| 1787418184 | 23.33° C | 78% | 1005.8 hPa | 0 mm | - | 715 W/m² | - |
| 1787417880 | 23.33° C | 80% | 1006.1 hPa | 0 mm | - | 112 W/m² | - |
| 1787417575 | 23.33° C | 79% | 1006 hPa | 0 mm | - | 72 W/m² | - |
| 1787417275 | 23.89° C | 79% | 1006.2 hPa | 0 mm | - | 131 W/m² | - |
| 1787416971 | 23.89° C | 77% | 1006.1 hPa | 0 mm | - | 69 W/m² | - |
| 1787416666 | 23.89° C | 76% | 1006.2 hPa | 0 mm | - | 90 W/m² | - |
| 1787416362 | 23.89° C | 75% | 1006.2 hPa | 0 mm | - | 117 W/m² | - |
| 1787416061 | 24.44° C | 74% | 1006.4 hPa | 0 mm | - | 212 W/m² | - |
| 1787415757 | 23.89° C | 75% | 1006.5 hPa | 0 mm | - | 405 W/m² | - |
| 1787415456 | 24.44° C | 71% | 1006.4 hPa | 0 mm | - | 389 W/m² | - |
| 1787415152 | 24.44° C | 70% | 1006.6 hPa | 0 mm | - | 198 W/m² | - |
| 1787414847 | 25° C | 69% | 1006.4 hPa | 0 mm | - | 108 W/m² | - |
| 1787414543 | 25.56° C | 69% | 1006.6 hPa | 0 mm | - | 84 W/m² | - |
| 1787414241 | 25.56° C | 67% | 1006.7 hPa | 0 mm | - | 131 W/m² | - |
| 1787413936 | 25.56° C | 69% | 1006.7 hPa | 0 mm | - | 513 W/m² | - |
| 1787413631 | 25.56° C | 69% | 1006.7 hPa | 0 mm | - | 708 W/m² | - |
| 1787413330 | 25.56° C | 67% | 1006.6 hPa | 0 mm | - | 668 W/m² | - |
| 1787413027 | 25° C | 72% | 1006.9 hPa | 0 mm | - | 686 W/m² | - |
| 1787412723 | 23.89° C | 71% | 1006.8 hPa | 0 mm | - | 658 W/m² | - |
| 1787412422 | 23.89° C | 71% | 1006.9 hPa | 0 mm | - | 629 W/m² | - |
| 1787412118 | 24.44° C | 70% | 1007 hPa | 0 mm | - | 98 W/m² | - |
| 1787411815 | 24.44° C | 71% | 1007 hPa | 0 mm | - | 116 W/m² | - |
| 1787411510 | 23.89° C | 74% | 1007.1 hPa | 0 mm | - | 600 W/m² | - |
| 1787411206 | 21.67° C | 80% | 1006.9 hPa | 0 mm | - | 530 W/m² | - |
| 1787410902 | 21.67° C | 80% | 1007.1 hPa | 0 mm | - | 530 W/m² | - |
* Rain latest hour (hover to see other rain measurements)
** Current wind speed in m/s (hover to see current wind gust speed)